sensor_id;sensor_type;location;lat;lon;timestamp;temperature;humidity
32173;DHT22;18679;45.190;5.722;2023-03-14T00:01:40;15.10;66.00
32173;DHT22;18679;45.190;5.722;2023-03-14T00:04:41;15.20;65.90
32173;DHT22;18679;45.190;5.722;2023-03-14T00:07:42;15.20;66.00
32173;DHT22;18679;45.190;5.722;2023-03-14T00:10:43;15.20;66.30
32173;DHT22;18679;45.190;5.722;2023-03-14T00:13:47;15.20;66.40
32173;DHT22;18679;45.190;5.722;2023-03-14T00:16:49;15.30;66.60
32173;DHT22;18679;45.190;5.722;2023-03-14T00:19:50;15.40;66.80
32173;DHT22;18679;45.190;5.722;2023-03-14T00:22:53;15.40;66.90
32173;DHT22;18679;45.190;5.722;2023-03-14T00:25:57;15.40;67.00
32173;DHT22;18679;45.190;5.722;2023-03-14T00:28:58;15.50;67.00
32173;DHT22;18679;45.190;5.722;2023-03-14T00:31:59;15.50;66.90
32173;DHT22;18679;45.190;5.722;2023-03-14T00:35:00;15.50;66.80
32173;DHT22;18679;45.190;5.722;2023-03-14T00:38:01;15.50;66.70
32173;DHT22;18679;45.190;5.722;2023-03-14T00:41:10;15.50;66.80
32173;DHT22;18679;45.190;5.722;2023-03-14T02:06:29;15.50;68.50
32173;DHT22;18679;45.190;5.722;2023-03-14T03:45:44;15.20;67.40
32173;DHT22;18679;45.190;5.722;2023-03-14T04:47:35;15.30;68.00
32173;DHT22;18679;45.190;5.722;2023-03-14T05:02:31;15.30;67.70
32173;DHT22;18679;45.190;5.722;2023-03-14T05:26:26;15.10;67.10
32173;DHT22;18679;45.190;5.722;2023-03-14T05:29:47;14.90;67.30
32173;DHT22;18679;45.190;5.722;2023-03-14T05:32:54;14.90;67.20
32173;DHT22;18679;45.190;5.722;2023-03-14T05:45:13;14.90;66.90
32173;DHT22;18679;45.190;5.722;2023-03-14T06:18:09;14.80;67.10
32173;DHT22;18679;45.190;5.722;2023-03-14T06:21:13;14.80;67.20
32173;DHT22;18679;45.190;5.722;2023-03-14T06:24:14;14.80;67.20
32173;DHT22;18679;45.190;5.722;2023-03-14T06:27:20;14.80;67.10
32173;DHT22;18679;45.190;5.722;2023-03-14T06:30:22;14.90;66.80
32173;DHT22;18679;45.190;5.722;2023-03-14T06:33:23;14.90;66.80
32173;DHT22;18679;45.190;5.722;2023-03-14T06:36:25;14.90;66.60
32173;DHT22;18679;45.190;5.722;2023-03-14T06:39:25;14.90;66.60
32173;DHT22;18679;45.190;5.722;2023-03-14T06:42:35;14.90;66.60
32173;DHT22;18679;45.190;5.722;2023-03-14T06:45:36;15.00;66.70
32173;DHT22;18679;45.190;5.722;2023-03-14T06:48:37;15.00;66.50
32173;DHT22;18679;45.190;5.722;2023-03-14T06:51:38;14.80;66.30
32173;DHT22;18679;45.190;5.722;2023-03-14T06:54:41;15.00;66.40
32173;DHT22;18679;45.190;5.722;2023-03-14T06:57:42;15.00;66.40
32173;DHT22;18679;45.190;5.722;2023-03-14T07:00:44;15.00;65.80
32173;DHT22;18679;45.190;5.722;2023-03-14T07:03:49;15.00;65.30
32173;DHT22;18679;45.190;5.722;2023-03-14T07:06:49;15.10;64.50
32173;DHT22;18679;45.190;5.722;2023-03-14T07:09:50;15.10;64.40
32173;DHT22;18679;45.190;5.722;2023-03-14T07:12:51;15.00;64.30
32173;DHT22;18679;45.190;5.722;2023-03-14T07:15:54;15.10;64.50
32173;DHT22;18679;45.190;5.722;2023-03-14T07:18:55;15.00;64.50
32173;DHT22;18679;45.190;5.722;2023-03-14T07:21:56;15.00;64.60
32173;DHT22;18679;45.190;5.722;2023-03-14T07:25:01;15.00;64.40
32173;DHT22;18679;45.190;5.722;2023-03-14T07:28:02;15.10;64.80
32173;DHT22;18679;45.190;5.722;2023-03-14T07:31:04;15.10;65.10
32173;DHT22;18679;45.190;5.722;2023-03-14T07:34:06;15.10;65.40
32173;DHT22;18679;45.190;5.722;2023-03-14T07:37:11;15.10;66.40
32173;DHT22;18679;45.190;5.722;2023-03-14T07:40:13;15.00;65.60
32173;DHT22;18679;45.190;5.722;2023-03-14T07:43:16;15.00;65.70
32173;DHT22;18679;45.190;5.722;2023-03-14T07:46:22;15.00;65.50
32173;DHT22;18679;45.190;5.722;2023-03-14T07:49:23;15.10;65.40
32173;DHT22;18679;45.190;5.722;2023-03-14T07:52:24;15.00;65.20
32173;DHT22;18679;45.190;5.722;2023-03-14T07:55:25;15.00;65.30
32173;DHT22;18679;45.190;5.722;2023-03-14T07:58:26;15.00;65.20
32173;DHT22;18679;45.190;5.722;2023-03-14T08:01:27;14.90;65.40
32173;DHT22;18679;45.190;5.722;2023-03-14T08:04:29;14.90;65.80
32173;DHT22;18679;45.190;5.722;2023-03-14T08:20:33;14.80;66.80
32173;DHT22;18679;45.190;5.722;2023-03-14T08:23:36;14.80;66.50
32173;DHT22;18679;45.190;5.722;2023-03-14T08:26:37;14.70;66.40
32173;DHT22;18679;45.190;5.722;2023-03-14T08:29:38;14.70;66.30
32173;DHT22;18679;45.190;5.722;2023-03-14T08:32:42;14.70;66.30
32173;DHT22;18679;45.190;5.722;2023-03-14T08:35:43;14.70;66.20
32173;DHT22;18679;45.190;5.722;2023-03-14T08:38:45;14.70;66.30
32173;DHT22;18679;45.190;5.722;2023-03-14T08:41:46;14.60;66.30
32173;DHT22;18679;45.190;5.722;2023-03-14T08:44:51;14.70;66.50
32173;DHT22;18679;45.190;5.722;2023-03-14T08:47:52;14.70;66.50
32173;DHT22;18679;45.190;5.722;2023-03-14T08:50:53;14.70;66.60
32173;DHT22;18679;45.190;5.722;2023-03-14T08:53:54;14.70;66.50
32173;DHT22;18679;45.190;5.722;2023-03-14T08:56:55;14.70;66.50
32173;DHT22;18679;45.190;5.722;2023-03-14T08:59:57;14.70;66.60
32173;DHT22;18679;45.190;5.722;2023-03-14T09:02:58;14.70;66.50
32173;DHT22;18679;45.190;5.722;2023-03-14T09:06:07;14.70;66.60
32173;DHT22;18679;45.190;5.722;2023-03-14T09:09:08;14.70;66.20
32173;DHT22;18679;45.190;5.722;2023-03-14T09:12:09;14.70;66.20
32173;DHT22;18679;45.190;5.722;2023-03-14T09:15:10;14.70;66.00
32173;DHT22;18679;45.190;5.722;2023-03-14T09:18:12;14.70;66.00
32173;DHT22;18679;45.190;5.722;2023-03-14T09:21:13;14.70;66.10
32173;DHT22;18679;45.190;5.722;2023-03-14T09:24:14;14.80;66.20
32173;DHT22;18679;45.190;5.722;2023-03-14T09:27:15;14.80;65.90
32173;DHT22;18679;45.190;5.722;2023-03-14T09:30:17;14.80;65.80
32173;DHT22;18679;45.190;5.722;2023-03-14T09:33:18;14.80;66.00
32173;DHT22;18679;45.190;5.722;2023-03-14T09:36:19;14.70;66.20
32173;DHT22;18679;45.190;5.722;2023-03-14T09:39:21;14.70;66.30
32173;DHT22;18679;45.190;5.722;2023-03-14T09:42:25;14.70;66.50
32173;DHT22;18679;45.190;5.722;2023-03-14T09:45:33;14.50;67.60
32173;DHT22;18679;45.190;5.722;2023-03-14T09:48:34;14.50;68.00
32173;DHT22;18679;45.190;5.722;2023-03-14T09:51:36;14.50;67.50
32173;DHT22;18679;45.190;5.722;2023-03-14T09:54:45;14.50;67.50
32173;DHT22;18679;45.190;5.722;2023-03-14T09:57:50;14.40;67.60
32173;DHT22;18679;45.190;5.722;2023-03-14T10:00:55;14.30;67.80
32173;DHT22;18679;45.190;5.722;2023-03-14T10:04:02;14.30;68.10
32173;DHT22;18679;45.190;5.722;2023-03-14T10:07:04;14.30;68.40
32173;DHT22;18679;45.190;5.722;2023-03-14T10:10:12;14.30;68.70
32173;DHT22;18679;45.190;5.722;2023-03-14T10:13:23;14.30;68.80
32173;DHT22;18679;45.190;5.722;2023-03-14T10:16:31;14.30;68.70
32173;DHT22;18679;45.190;5.722;2023-03-14T10:19:33;14.30;68.80
32173;DHT22;18679;45.190;5.722;2023-03-14T10:22:36;14.30;68.70
32173;DHT22;18679;45.190;5.722;2023-03-14T10:25:39;14.40;68.60
32173;DHT22;18679;45.190;5.722;2023-03-14T10:29:02;14.60;68.50
32173;DHT22;18679;45.190;5.722;2023-03-14T10:32:06;14.60;68.00
32173;DHT22;18679;45.190;5.722;2023-03-14T10:35:20;14.60;67.40
32173;DHT22;18679;45.190;5.722;2023-03-14T10:38:29;14.50;66.60
32173;DHT22;18679;45.190;5.722;2023-03-14T10:41:31;14.50;66.40
32173;DHT22;18679;45.190;5.722;2023-03-14T10:44:34;14.50;66.00
32173;DHT22;18679;45.190;5.722;2023-03-14T10:47:36;14.50;65.00
32173;DHT22;18679;45.190;5.722;2023-03-14T10:51:10;14.40;65.10
32173;DHT22;18679;45.190;5.722;2023-03-14T10:54:23;14.30;64.60
32173;DHT22;18679;45.190;5.722;2023-03-14T10:57:27;14.20;64.30
32173;DHT22;18679;45.190;5.722;2023-03-14T11:00:28;14.20;65.10
32173;DHT22;18679;45.190;5.722;2023-03-14T11:03:35;14.20;65.60
32173;DHT22;18679;45.190;5.722;2023-03-14T11:06:50;14.30;66.10
32173;DHT22;18679;45.190;5.722;2023-03-14T11:17:25;14.80;62.80
32173;DHT22;18679;45.190;5.722;2023-03-14T11:20:38;15.10;61.50
32173;DHT22;18679;45.190;5.722;2023-03-14T11:30:52;16.10;58.80
32173;DHT22;18679;45.190;5.722;2023-03-14T11:37:05;16.80;56.30
32173;DHT22;18679;45.190;5.722;2023-03-14T11:40:17;17.10;54.70
32173;DHT22;18679;45.190;5.722;2023-03-14T11:43:55;17.40;53.60
32173;DHT22;18679;45.190;5.722;2023-03-14T11:47:00;17.50;52.30
32173;DHT22;18679;45.190;5.722;2023-03-14T11:50:16;17.70;51.60
32173;DHT22;18679;45.190;5.722;2023-03-14T11:53:26;18.10;50.70
32173;DHT22;18679;45.190;5.722;2023-03-14T11:57:12;18.30;49.90
32173;DHT22;18679;45.190;5.722;2023-03-14T12:00:19;18.60;49.70
32173;DHT22;18679;45.190;5.722;2023-03-14T12:03:46;18.70;48.80
32173;DHT22;18679;45.190;5.722;2023-03-14T12:06:51;18.70;48.60
32173;DHT22;18679;45.190;5.722;2023-03-14T12:09:54;18.80;48.80
32173;DHT22;18679;45.190;5.722;2023-03-14T12:12:56;19.00;48.60
32173;DHT22;18679;45.190;5.722;2023-03-14T12:16:00;19.20;48.10
32173;DHT22;18679;45.190;5.722;2023-03-14T12:19:26;19.40;47.50
32173;DHT22;18679;45.190;5.722;2023-03-14T12:22:35;19.50;46.00
32173;DHT22;18679;45.190;5.722;2023-03-14T12:25:36;19.20;45.20
32173;DHT22;18679;45.190;5.722;2023-03-14T12:28:52;19.00;46.30
32173;DHT22;18679;45.190;5.722;2023-03-14T12:39:03;21.60;43.90
32173;DHT22;18679;45.190;5.722;2023-03-14T12:45:34;23.60;39.00
32173;DHT22;18679;45.190;5.722;2023-03-14T12:48:38;24.30;37.70
32173;DHT22;18679;45.190;5.722;2023-03-14T12:51:42;24.60;37.10
32173;DHT22;18679;45.190;5.722;2023-03-14T12:54:59;24.50;37.30
32173;DHT22;18679;45.190;5.722;2023-03-14T13:01:21;24.20;36.30
32173;DHT22;18679;45.190;5.722;2023-03-14T13:04:34;23.60;36.70
32173;DHT22;18679;45.190;5.722;2023-03-14T13:31:31;20.30;41.90
32173;DHT22;18679;45.190;5.722;2023-03-14T13:34:51;19.80;42.90
32173;DHT22;18679;45.190;5.722;2023-03-14T13:37:59;19.40;43.30
32173;DHT22;18679;45.190;5.722;2023-03-14T13:41:05;19.10;44.00
32173;DHT22;18679;45.190;5.722;2023-03-14T14:08:25;17.50;47.30
32173;DHT22;18679;45.190;5.722;2023-03-14T14:18:07;17.10;48.50
32173;DHT22;18679;45.190;5.722;2023-03-14T14:21:09;17.10;48.50
32173;DHT22;18679;45.190;5.722;2023-03-14T14:24:15;17.00;48.40
32173;DHT22;18679;45.190;5.722;2023-03-14T14:27:19;16.90;48.40
32173;DHT22;18679;45.190;5.722;2023-03-14T14:30:29;16.90;48.60
32173;DHT22;18679;45.190;5.722;2023-03-14T14:34:01;16.80;49.00
32173;DHT22;18679;45.190;5.722;2023-03-14T14:37:03;16.70;49.30
32173;DHT22;18679;45.190;5.722;2023-03-14T14:40:16;16.70;49.60
32173;DHT22;18679;45.190;5.722;2023-03-14T14:43:24;16.60;49.80
32173;DHT22;18679;45.190;5.722;2023-03-14T14:46:30;16.60;49.80
32173;DHT22;18679;45.190;5.722;2023-03-14T14:49:33;16.60;49.90
32173;DHT22;18679;45.190;5.722;2023-03-14T14:52:42;16.60;50.00
32173;DHT22;18679;45.190;5.722;2023-03-14T14:55:43;16.60;49.90
32173;DHT22;18679;45.190;5.722;2023-03-14T14:58:46;16.60;49.90
32173;DHT22;18679;45.190;5.722;2023-03-14T15:01:47;16.70;49.90
32173;DHT22;18679;45.190;5.722;2023-03-14T15:04:49;16.70;49.80
32173;DHT22;18679;45.190;5.722;2023-03-14T15:07:50;16.80;49.90
32173;DHT22;18679;45.190;5.722;2023-03-14T15:10:51;16.70;49.80
32173;DHT22;18679;45.190;5.722;2023-03-14T15:13:53;16.60;49.60
32173;DHT22;18679;45.190;5.722;2023-03-14T15:16:54;16.30;49.80
32173;DHT22;18679;45.190;5.722;2023-03-14T15:19:55;16.10;50.20
32173;DHT22;18679;45.190;5.722;2023-03-14T15:22:58;15.70;51.30
32173;DHT22;18679;45.190;5.722;2023-03-14T15:25:59;15.20;52.70
32173;DHT22;18679;45.190;5.722;2023-03-14T15:29:00;14.70;53.80
32173;DHT22;18679;45.190;5.722;2023-03-14T15:32:01;14.40;54.70
32173;DHT22;18679;45.190;5.722;2023-03-14T15:35:03;14.20;55.30
32173;DHT22;18679;45.190;5.722;2023-03-14T15:38:04;14.10;55.70
32173;DHT22;18679;45.190;5.722;2023-03-14T15:41:05;14.10;55.80
32173;DHT22;18679;45.190;5.722;2023-03-14T15:44:06;14.20;55.90
32173;DHT22;18679;45.190;5.722;2023-03-14T15:47:10;14.40;55.80
32173;DHT22;18679;45.190;5.722;2023-03-14T15:50:11;14.50;55.40
32173;DHT22;18679;45.190;5.722;2023-03-14T15:53:13;14.60;54.90
32173;DHT22;18679;45.190;5.722;2023-03-14T15:56:16;14.70;54.70
32173;DHT22;18679;45.190;5.722;2023-03-14T15:59:18;14.70;54.40
32173;DHT22;18679;45.190;5.722;2023-03-14T16:02:19;14.80;54.40
32173;DHT22;18679;45.190;5.722;2023-03-14T16:05:20;14.80;54.60
32173;DHT22;18679;45.190;5.722;2023-03-14T16:08:25;14.90;53.80
32173;DHT22;18679;45.190;5.722;2023-03-14T16:11:26;14.90;53.80
32173;DHT22;18679;45.190;5.722;2023-03-14T16:14:27;15.00;53.80
32173;DHT22;18679;45.190;5.722;2023-03-14T16:17:28;15.00;53.70
32173;DHT22;18679;45.190;5.722;2023-03-14T16:20:30;15.10;53.70
32173;DHT22;18679;45.190;5.722;2023-03-14T16:23:32;15.10;54.00
32173;DHT22;18679;45.190;5.722;2023-03-14T16:26:33;15.10;52.80
32173;DHT22;18679;45.190;5.722;2023-03-14T16:29:36;15.10;51.90
32173;DHT22;18679;45.190;5.722;2023-03-14T16:32:38;15.00;51.90
32173;DHT22;18679;45.190;5.722;2023-03-14T16:35:39;15.00;51.80
32173;DHT22;18679;45.190;5.722;2023-03-14T16:38:42;15.00;51.50
32173;DHT22;18679;45.190;5.722;2023-03-14T16:41:43;15.20;51.70
32173;DHT22;18679;45.190;5.722;2023-03-14T16:44:44;14.80;51.60
32173;DHT22;18679;45.190;5.722;2023-03-14T16:47:46;14.70;52.30
32173;DHT22;18679;45.190;5.722;2023-03-14T16:50:49;14.70;51.90
32173;DHT22;18679;45.190;5.722;2023-03-14T16:53:51;14.70;52.00
32173;DHT22;18679;45.190;5.722;2023-03-14T16:56:52;14.70;52.10
32173;DHT22;18679;45.190;5.722;2023-03-14T16:59:53;14.70;52.20
32173;DHT22;18679;45.190;5.722;2023-03-14T17:02:59;14.60;52.20
32173;DHT22;18679;45.190;5.722;2023-03-14T17:06:00;14.70;52.30
32173;DHT22;18679;45.190;5.722;2023-03-14T17:09:04;14.70;52.40
32173;DHT22;18679;45.190;5.722;2023-03-14T17:25:30;14.50;52.90
32173;DHT22;18679;45.190;5.722;2023-03-14T17:32:32;14.40;53.00
32173;DHT22;18679;45.190;5.722;2023-03-14T17:35:33;14.40;53.00
32173;DHT22;18679;45.190;5.722;2023-03-14T17:38:37;14.40;53.70
32173;DHT22;18679;45.190;5.722;2023-03-14T17:41:39;14.40;53.00
32173;DHT22;18679;45.190;5.722;2023-03-14T17:44:42;14.40;52.90
32173;DHT22;18679;45.190;5.722;2023-03-14T17:48:03;14.40;52.80
32173;DHT22;18679;45.190;5.722;2023-03-14T17:51:04;14.40;52.90
32173;DHT22;18679;45.190;5.722;2023-03-14T17:54:18;14.40;53.00
32173;DHT22;18679;45.190;5.722;2023-03-14T17:57:23;14.30;53.20
32173;DHT22;18679;45.190;5.722;2023-03-14T18:00:24;14.30;53.50
32173;DHT22;18679;45.190;5.722;2023-03-14T18:03:26;14.20;53.50
32173;DHT22;18679;45.190;5.722;2023-03-14T18:06:27;14.10;53.50
32173;DHT22;18679;45.190;5.722;2023-03-14T18:09:30;14.10;53.60
32173;DHT22;18679;45.190;5.722;2023-03-14T18:12:33;14.00;53.50
32173;DHT22;18679;45.190;5.722;2023-03-14T18:15:34;14.00;53.60
32173;DHT22;18679;45.190;5.722;2023-03-14T18:18:35;13.90;53.60
32173;DHT22;18679;45.190;5.722;2023-03-14T18:21:39;13.90;53.80
32173;DHT22;18679;45.190;5.722;2023-03-14T18:24:41;13.80;53.90
32173;DHT22;18679;45.190;5.722;2023-03-14T18:27:43;13.70;54.00
32173;DHT22;18679;45.190;5.722;2023-03-14T18:30:44;13.70;54.20
32173;DHT22;18679;45.190;5.722;2023-03-14T18:33:53;13.60;54.40
32173;DHT22;18679;45.190;5.722;2023-03-14T18:36:55;13.60;55.00
32173;DHT22;18679;45.190;5.722;2023-03-14T18:39:56;13.60;54.60
32173;DHT22;18679;45.190;5.722;2023-03-14T18:42:57;13.60;54.80
32173;DHT22;18679;45.190;5.722;2023-03-14T18:45:58;13.60;54.90
32173;DHT22;18679;45.190;5.722;2023-03-14T18:49:00;13.60;55.00
32173;DHT22;18679;45.190;5.722;2023-03-14T18:52:03;13.60;55.10
32173;DHT22;18679;45.190;5.722;2023-03-14T18:55:05;13.60;55.20
32173;DHT22;18679;45.190;5.722;2023-03-14T18:58:08;13.50;55.30
32173;DHT22;18679;45.190;5.722;2023-03-14T19:01:10;13.40;55.40
32173;DHT22;18679;45.190;5.722;2023-03-14T19:04:12;13.40;55.50
32173;DHT22;18679;45.190;5.722;2023-03-14T19:07:13;13.40;55.60
32173;DHT22;18679;45.190;5.722;2023-03-14T19:10:15;13.40;55.60
32173;DHT22;18679;45.190;5.722;2023-03-14T19:13:16;13.40;55.60
32173;DHT22;18679;45.190;5.722;2023-03-14T19:16:18;13.40;55.60
32173;DHT22;18679;45.190;5.722;2023-03-14T19:19:19;13.50;55.60
32173;DHT22;18679;45.190;5.722;2023-03-14T19:22:21;13.50;55.50
32173;DHT22;18679;45.190;5.722;2023-03-14T19:25:22;13.50;55.30
32173;DHT22;18679;45.190;5.722;2023-03-14T19:28:24;13.50;55.30
32173;DHT22;18679;45.190;5.722;2023-03-14T19:31:26;13.40;55.40
32173;DHT22;18679;45.190;5.722;2023-03-14T19:34:27;13.40;55.40
32173;DHT22;18679;45.190;5.722;2023-03-14T19:37:29;13.40;55.50
32173;DHT22;18679;45.190;5.722;2023-03-14T19:40:31;13.40;55.50
32173;DHT22;18679;45.190;5.722;2023-03-14T19:43:32;13.40;55.60
32173;DHT22;18679;45.190;5.722;2023-03-14T19:46:33;13.50;55.70
32173;DHT22;18679;45.190;5.722;2023-03-14T19:49:35;13.50;55.60
32173;DHT22;18679;45.190;5.722;2023-03-14T19:52:37;13.50;55.50
32173;DHT22;18679;45.190;5.722;2023-03-14T19:55:38;13.50;55.40
32173;DHT22;18679;45.190;5.722;2023-03-14T19:58:46;13.50;55.50
32173;DHT22;18679;45.190;5.722;2023-03-14T20:01:48;13.40;55.50
32173;DHT22;18679;45.190;5.722;2023-03-14T20:04:49;13.50;55.50
32173;DHT22;18679;45.190;5.722;2023-03-14T20:07:54;13.50;55.30
32173;DHT22;18679;45.190;5.722;2023-03-14T20:10:55;13.50;55.10
32173;DHT22;18679;45.190;5.722;2023-03-14T20:13:57;13.50;55.00
32173;DHT22;18679;45.190;5.722;2023-03-14T20:16:58;13.50;55.00
32173;DHT22;18679;45.190;5.722;2023-03-14T20:20:01;13.40;54.90
32173;DHT22;18679;45.190;5.722;2023-03-14T20:23:10;13.40;55.00
32173;DHT22;18679;45.190;5.722;2023-03-14T20:26:12;13.80;55.10
32173;DHT22;18679;45.190;5.722;2023-03-14T20:29:14;13.40;54.80
32173;DHT22;18679;45.190;5.722;2023-03-14T20:32:15;13.30;55.00
32173;DHT22;18679;45.190;5.722;2023-03-14T20:35:18;13.20;55.20
32173;DHT22;18679;45.190;5.722;2023-03-14T20:38:28;13.20;55.40
32173;DHT22;18679;45.190;5.722;2023-03-14T20:41:30;13.10;55.50
32173;DHT22;18679;45.190;5.722;2023-03-14T20:44:32;13.10;55.60
32173;DHT22;18679;45.190;5.722;2023-03-14T20:47:34;13.10;55.70
32173;DHT22;18679;45.190;5.722;2023-03-14T20:50:35;13.10;55.80
32173;DHT22;18679;45.190;5.722;2023-03-14T20:53:37;13.00;55.90
32173;DHT22;18679;45.190;5.722;2023-03-14T20:56:38;13.10;55.90
32173;DHT22;18679;45.190;5.722;2023-03-14T20:59:39;13.10;55.80
32173;DHT22;18679;45.190;5.722;2023-03-14T21:02:40;13.00;55.90
32173;DHT22;18679;45.190;5.722;2023-03-14T21:05:46;13.10;55.90
32173;DHT22;18679;45.190;5.722;2023-03-14T21:08:47;13.10;55.90
32173;DHT22;18679;45.190;5.722;2023-03-14T21:11:48;13.20;55.90
32173;DHT22;18679;45.190;5.722;2023-03-14T21:14:50;13.30;55.80
32173;DHT22;18679;45.190;5.722;2023-03-14T21:17:53;13.30;55.70
32173;DHT22;18679;45.190;5.722;2023-03-14T21:20:57;13.30;55.70
32173;DHT22;18679;45.190;5.722;2023-03-14T21:23:58;13.30;55.60
32173;DHT22;18679;45.190;5.722;2023-03-14T21:27:00;13.30;55.70
32173;DHT22;18679;45.190;5.722;2023-03-14T21:30:02;13.40;55.70
32173;DHT22;18679;45.190;5.722;2023-03-14T21:33:03;13.40;55.60
32173;DHT22;18679;45.190;5.722;2023-03-14T21:36:05;13.40;55.60
32173;DHT22;18679;45.190;5.722;2023-03-14T21:39:08;13.40;55.60
32173;DHT22;18679;45.190;5.722;2023-03-14T21:42:11;13.40;55.60
32173;DHT22;18679;45.190;5.722;2023-03-14T21:45:14;13.40;55.50
32173;DHT22;18679;45.190;5.722;2023-03-14T21:48:16;13.40;55.60
32173;DHT22;18679;45.190;5.722;2023-03-14T21:51:18;13.30;55.60
32173;DHT22;18679;45.190;5.722;2023-03-14T21:54:20;13.30;55.70
32173;DHT22;18679;45.190;5.722;2023-03-14T21:57:22;13.30;55.90
32173;DHT22;18679;45.190;5.722;2023-03-14T22:00:29;13.20;56.00
32173;DHT22;18679;45.190;5.722;2023-03-14T22:03:30;13.20;56.20
32173;DHT22;18679;45.190;5.722;2023-03-14T22:06:33;13.10;56.20
32173;DHT22;18679;45.190;5.722;2023-03-14T22:09:34;13.20;56.30
32173;DHT22;18679;45.190;5.722;2023-03-14T22:12:36;13.20;56.30
32173;DHT22;18679;45.190;5.722;2023-03-14T22:15:37;13.20;56.00
32173;DHT22;18679;45.190;5.722;2023-03-14T22:18:39;13.20;55.90
32173;DHT22;18679;45.190;5.722;2023-03-14T22:21:40;13.20;55.90
32173;DHT22;18679;45.190;5.722;2023-03-14T22:24:41;13.30;55.90
32173;DHT22;18679;45.190;5.722;2023-03-14T22:27:42;13.20;55.80
32173;DHT22;18679;45.190;5.722;2023-03-14T22:30:47;13.30;55.70
32173;DHT22;18679;45.190;5.722;2023-03-14T22:33:49;13.20;55.60
32173;DHT22;18679;45.190;5.722;2023-03-14T22:36:50;13.20;55.70
32173;DHT22;18679;45.190;5.722;2023-03-14T22:39:51;13.20;55.80
32173;DHT22;18679;45.190;5.722;2023-03-14T22:42:52;13.20;55.90
32173;DHT22;18679;45.190;5.722;2023-03-14T22:46:01;13.10;55.90
32173;DHT22;18679;45.190;5.722;2023-03-14T22:49:02;13.20;55.90
32173;DHT22;18679;45.190;5.722;2023-03-14T22:52:04;13.10;55.90
32173;DHT22;18679;45.190;5.722;2023-03-14T22:55:05;13.10;56.00
32173;DHT22;18679;45.190;5.722;2023-03-14T22:58:06;13.00;56.10
32173;DHT22;18679;45.190;5.722;2023-03-14T23:01:08;13.00;56.20
32173;DHT22;18679;45.190;5.722;2023-03-14T23:04:09;13.00;56.20
32173;DHT22;18679;45.190;5.722;2023-03-14T23:07:10;13.00;56.20
32173;DHT22;18679;45.190;5.722;2023-03-14T23:10:11;13.00;56.10
32173;DHT22;18679;45.190;5.722;2023-03-14T23:13:12;13.00;56.00
32173;DHT22;18679;45.190;5.722;2023-03-14T23:16:14;13.00;55.80
32173;DHT22;18679;45.190;5.722;2023-03-14T23:19:16;13.00;56.00
32173;DHT22;18679;45.190;5.722;2023-03-14T23:22:17;13.00;56.00
32173;DHT22;18679;45.190;5.722;2023-03-14T23:25:18;12.90;56.00
32173;DHT22;18679;45.190;5.722;2023-03-14T23:28:19;12.90;56.00
32173;DHT22;18679;45.190;5.722;2023-03-14T23:31:22;12.90;56.00
32173;DHT22;18679;45.190;5.722;2023-03-14T23:34:25;12.90;56.00
32173;DHT22;18679;45.190;5.722;2023-03-14T23:37:26;12.80;55.90
32173;DHT22;18679;45.190;5.722;2023-03-14T23:40:27;12.80;55.80
32173;DHT22;18679;45.190;5.722;2023-03-14T23:43:28;12.80;55.90
32173;DHT22;18679;45.190;5.722;2023-03-14T23:46:29;12.70;56.50
32173;DHT22;18679;45.190;5.722;2023-03-14T23:49:31;12.70;56.00
32173;DHT22;18679;45.190;5.722;2023-03-14T23:52:32;12.60;56.00
32173;DHT22;18679;45.190;5.722;2023-03-14T23:55:33;12.60;56.20
32173;DHT22;18679;45.190;5.722;2023-03-14T23:58:34;12.60;56.20
